Главная страница
METAR-TAF:

METAR-TAF

Аэропорты :

Либревиль, Габон

широта: 00-27N, долгота: 009-25E, высота над уровнем моря: 12 м

Текущие метеонаблюдения

Эта сводка был подготовлена 10 минут назад, в 15:30 UTC
Ветер 6 Узел от юго-западный, изменяющийся между южный и западный
Температура 26°C
Влажность 79%
Давление 1013 hPa
Видимость 10 км и более
небольшая облачность на высоте 1500 фута
Рассеянная облачность на высоте 5000 фута

METAR: FOOL 191530Z 23006KT 190V260 9999 FEW015 BKN050 26/22 Q1013 NOSIG

Время: 16:40 (15:40 UTC)

Прогноз

Эта сводка был подготовлена 4 часа и 40 минут назад, в 11:00 UTC
Прогноз действительный с 19-го 12 UTC до 20-го 18 UTC
Ветер 9 Узел от южный-юго-западный
Видимость 10 км и более
Отдельные облака на высоте 800 фута
Рассеянная облачность на высоте 3300 фута
Вероятность 30%
С 20-го 04 UTC до 20-го 07 UTC
Видимость: 4000 м
Рассеянная облачность на высоте 800 фута
Морось

TAF: FOOL 191100Z 1912/2018 20009KT 9999 SCT008 BKN033 PROB30 2004/2007 4000 DZ BKN008

Метеонаблюдения и прогнозы для более 4000 аэропортов (сводки METAR и TAF).

Имеющиеся станции представлены на карте желтыми и красными точками.

Чтобы увидеть название станции, наведите на нее мышь.

Затем щелкните, чтобы увидеть метеонаблюдения и метеопрогнозы.

Управление картой: чтобы увеличить масштаб, щелкните зеленые кнопки с черным крестиком; чтобы уменьшить масштаб, щелкните зеленую кнопку с тире; для просмотра соседних карт щелкайте зеленые стрелки.


METAR-TAF: